sensor_id;sensor_type;location;lat;lon;timestamp;temperature;humidity
64689;DHT22;62504;46.070;14.492;2023-04-01T00:00:23;9.80;99.90
64689;DHT22;62504;46.070;14.492;2023-04-01T00:02:48;9.70;99.90
64689;DHT22;62504;46.070;14.492;2023-04-01T00:05:14;9.60;99.90
64689;DHT22;62504;46.070;14.492;2023-04-01T00:07:42;9.50;99.90
64689;DHT22;62504;46.070;14.492;2023-04-01T00:10:10;9.40;99.90
64689;DHT22;62504;46.070;14.492;2023-04-01T00:12:37;9.30;99.90
64689;DHT22;62504;46.070;14.492;2023-04-01T00:15:04;9.60;99.90
64689;DHT22;62504;46.070;14.492;2023-04-01T00:17:30;9.70;99.90
64689;DHT22;62504;46.070;14.492;2023-04-01T00:19:57;9.70;99.90
64689;DHT22;62504;46.070;14.492;2023-04-01T00:22:23;9.70;99.90
64689;DHT22;62504;46.070;14.492;2023-04-01T00:24:49;9.80;99.90
64689;DHT22;62504;46.070;14.492;2023-04-01T00:27:15;9.80;99.90
64689;DHT22;62504;46.070;14.492;2023-04-01T00:29:46;9.80;99.90
64689;DHT22;62504;46.070;14.492;2023-04-01T00:32:12;9.70;99.90
64689;DHT22;62504;46.070;14.492;2023-04-01T00:34:38;9.70;99.90
64689;DHT22;62504;46.070;14.492;2023-04-01T00:37:07;9.70;99.90
64689;DHT22;62504;46.070;14.492;2023-04-01T00:39:34;9.60;99.90
64689;DHT22;62504;46.070;14.492;2023-04-01T00:42:00;9.70;99.90
64689;DHT22;62504;46.070;14.492;2023-04-01T00:44:31;9.60;99.90
64689;DHT22;62504;46.070;14.492;2023-04-01T00:46:58;9.50;99.90
64689;DHT22;62504;46.070;14.492;2023-04-01T00:49:34;9.30;99.90
64689;DHT22;62504;46.070;14.492;2023-04-01T00:52:02;9.30;99.90
64689;DHT22;62504;46.070;14.492;2023-04-01T00:54:31;9.30;99.90
64689;DHT22;62504;46.070;14.492;2023-04-01T00:57:04;9.40;99.90
64689;DHT22;62504;46.070;14.492;2023-04-01T00:59:37;9.30;99.90
64689;DHT22;62504;46.070;14.492;2023-04-01T01:02:07;9.30;99.90
64689;DHT22;62504;46.070;14.492;2023-04-01T01:04:34;9.30;99.90
64689;DHT22;62504;46.070;14.492;2023-04-01T01:10:35;9.20;99.90
64689;DHT22;62504;46.070;14.492;2023-04-01T01:15:37;9.40;99.90
64689;DHT22;62504;46.070;14.492;2023-04-01T01:24:10;9.10;99.90
64689;DHT22;62504;46.070;14.492;2023-04-01T01:37:34;9.20;99.90
64689;DHT22;62504;46.070;14.492;2023-04-01T01:40:03;9.10;99.90
64689;DHT22;62504;46.070;14.492;2023-04-01T01:42:31;9.10;99.90
64689;DHT22;62504;46.070;14.492;2023-04-01T01:45:00;9.10;99.90
64689;DHT22;62504;46.070;14.492;2023-04-01T01:47:28;9.10;99.90
64689;DHT22;62504;46.070;14.492;2023-04-01T01:49:55;9.00;99.90
64689;DHT22;62504;46.070;14.492;2023-04-01T01:52:24;9.10;99.90
64689;DHT22;62504;46.070;14.492;2023-04-01T01:54:55;9.10;99.90
64689;DHT22;62504;46.070;14.492;2023-04-01T01:57:34;9.00;99.90
64689;DHT22;62504;46.070;14.492;2023-04-01T02:00:08;8.90;99.90
64689;DHT22;62504;46.070;14.492;2023-04-01T02:02:43;8.70;99.90
64689;DHT22;62504;46.070;14.492;2023-04-01T02:05:14;8.70;99.90
64689;DHT22;62504;46.070;14.492;2023-04-01T02:07:44;8.80;99.90
64689;DHT22;62504;46.070;14.492;2023-04-01T02:10:13;8.80;99.90
64689;DHT22;62504;46.070;14.492;2023-04-01T02:12:41;8.70;99.90
64689;DHT22;62504;46.070;14.492;2023-04-01T02:15:10;8.70;99.90
64689;DHT22;62504;46.070;14.492;2023-04-01T02:17:41;8.70;99.90
64689;DHT22;62504;46.070;14.492;2023-04-01T02:22:44;8.90;99.90
64689;DHT22;62504;46.070;14.492;2023-04-01T02:25:14;9.00;99.90
64689;DHT22;62504;46.070;14.492;2023-04-01T02:27:43;8.80;99.90
64689;DHT22;62504;46.070;14.492;2023-04-01T02:30:11;8.80;99.90
64689;DHT22;62504;46.070;14.492;2023-04-01T02:32:38;8.80;99.90
64689;DHT22;62504;46.070;14.492;2023-04-01T02:35:10;9.00;99.90
64689;DHT22;62504;46.070;14.492;2023-04-01T02:37:37;8.90;99.90
64689;DHT22;62504;46.070;14.492;2023-04-01T02:40:05;8.90;99.90
64689;DHT22;62504;46.070;14.492;2023-04-01T02:42:33;8.90;99.90
64689;DHT22;62504;46.070;14.492;2023-04-01T02:44:59;8.90;99.90
64689;DHT22;62504;46.070;14.492;2023-04-01T02:47:24;8.90;99.90
64689;DHT22;62504;46.070;14.492;2023-04-01T02:49:50;8.80;99.90
64689;DHT22;62504;46.070;14.492;2023-04-01T02:52:16;8.80;99.90
64689;DHT22;62504;46.070;14.492;2023-04-01T02:54:41;8.70;99.90
64689;DHT22;62504;46.070;14.492;2023-04-01T02:57:07;8.70;99.90
64689;DHT22;62504;46.070;14.492;2023-04-01T02:59:33;8.60;99.90
64689;DHT22;62504;46.070;14.492;2023-04-01T03:01:58;8.60;99.90
64689;DHT22;62504;46.070;14.492;2023-04-01T03:04:24;8.70;99.90
64689;DHT22;62504;46.070;14.492;2023-04-01T03:06:50;8.70;99.90
64689;DHT22;62504;46.070;14.492;2023-04-01T03:09:16;8.50;99.90
64689;DHT22;62504;46.070;14.492;2023-04-01T03:11:42;8.50;99.90
64689;DHT22;62504;46.070;14.492;2023-04-01T03:14:08;8.50;99.90
64689;DHT22;62504;46.070;14.492;2023-04-01T03:16:33;8.40;99.90
64689;DHT22;62504;46.070;14.492;2023-04-01T03:18:59;8.50;99.90
64689;DHT22;62504;46.070;14.492;2023-04-01T03:21:27;8.40;99.90
64689;DHT22;62504;46.070;14.492;2023-04-01T03:23:53;8.30;99.90
64689;DHT22;62504;46.070;14.492;2023-04-01T03:26:19;8.30;99.90
64689;DHT22;62504;46.070;14.492;2023-04-01T03:28:46;8.30;99.90
64689;DHT22;62504;46.070;14.492;2023-04-01T03:31:11;8.40;99.90
64689;DHT22;62504;46.070;14.492;2023-04-01T03:33:37;8.40;99.90
64689;DHT22;62504;46.070;14.492;2023-04-01T03:36:03;8.40;99.90
64689;DHT22;62504;46.070;14.492;2023-04-01T03:38:33;8.30;99.90
64689;DHT22;62504;46.070;14.492;2023-04-01T03:40:59;8.20;99.90
64689;DHT22;62504;46.070;14.492;2023-04-01T03:43:25;8.30;99.90
64689;DHT22;62504;46.070;14.492;2023-04-01T03:45:52;8.40;99.90
64689;DHT22;62504;46.070;14.492;2023-04-01T03:48:18;8.50;99.90
64689;DHT22;62504;46.070;14.492;2023-04-01T03:50:44;8.40;99.90
64689;DHT22;62504;46.070;14.492;2023-04-01T03:53:10;8.20;99.90
64689;DHT22;62504;46.070;14.492;2023-04-01T03:55:37;8.30;99.90
64689;DHT22;62504;46.070;14.492;2023-04-01T03:58:03;8.40;99.90
64689;DHT22;62504;46.070;14.492;2023-04-01T04:00:29;8.40;99.90
64689;DHT22;62504;46.070;14.492;2023-04-01T04:02:56;8.20;99.90
64689;DHT22;62504;46.070;14.492;2023-04-01T04:05:23;8.20;99.90
64689;DHT22;62504;46.070;14.492;2023-04-01T04:07:49;8.10;99.90
64689;DHT22;62504;46.070;14.492;2023-04-01T04:10:15;8.00;99.90
64689;DHT22;62504;46.070;14.492;2023-04-01T04:12:41;8.20;99.90
64689;DHT22;62504;46.070;14.492;2023-04-01T04:15:07;8.20;99.90
64689;DHT22;62504;46.070;14.492;2023-04-01T04:17:33;7.90;99.90
64689;DHT22;62504;46.070;14.492;2023-04-01T04:19:59;8.00;99.90
64689;DHT22;62504;46.070;14.492;2023-04-01T04:22:25;7.90;99.90
64689;DHT22;62504;46.070;14.492;2023-04-01T04:24:51;7.90;99.90
64689;DHT22;62504;46.070;14.492;2023-04-01T04:27:16;7.90;99.90
64689;DHT22;62504;46.070;14.492;2023-04-01T04:29:42;7.70;99.90
64689;DHT22;62504;46.070;14.492;2023-04-01T04:32:08;7.90;99.90
64689;DHT22;62504;46.070;14.492;2023-04-01T04:34:34;8.00;99.90
64689;DHT22;62504;46.070;14.492;2023-04-01T04:36:59;8.00;99.90
64689;DHT22;62504;46.070;14.492;2023-04-01T04:39:25;8.00;99.90
64689;DHT22;62504;46.070;14.492;2023-04-01T04:41:51;8.00;99.90
64689;DHT22;62504;46.070;14.492;2023-04-01T04:44:16;7.80;99.90
64689;DHT22;62504;46.070;14.492;2023-04-01T04:46:42;7.80;99.90
64689;DHT22;62504;46.070;14.492;2023-04-01T04:49:08;8.00;99.90
64689;DHT22;62504;46.070;14.492;2023-04-01T04:51:33;7.80;99.90
64689;DHT22;62504;46.070;14.492;2023-04-01T04:54:02;7.90;99.90
64689;DHT22;62504;46.070;14.492;2023-04-01T04:56:28;8.00;99.90
64689;DHT22;62504;46.070;14.492;2023-04-01T04:58:54;8.00;99.90
64689;DHT22;62504;46.070;14.492;2023-04-01T05:01:19;8.00;99.90
64689;DHT22;62504;46.070;14.492;2023-04-01T05:03:45;7.90;99.90
64689;DHT22;62504;46.070;14.492;2023-04-01T05:06:13;8.10;99.90
64689;DHT22;62504;46.070;14.492;2023-04-01T05:08:39;8.10;99.90
64689;DHT22;62504;46.070;14.492;2023-04-01T05:11:08;8.20;99.90
64689;DHT22;62504;46.070;14.492;2023-04-01T05:13:37;7.90;99.90
64689;DHT22;62504;46.070;14.492;2023-04-01T05:16:03;7.90;99.90
64689;DHT22;62504;46.070;14.492;2023-04-01T05:18:29;8.00;99.90
64689;DHT22;62504;46.070;14.492;2023-04-01T05:20:55;7.90;99.90
64689;DHT22;62504;46.070;14.492;2023-04-01T05:23:21;7.70;99.90
64689;DHT22;62504;46.070;14.492;2023-04-01T05:25:50;7.60;99.90
64689;DHT22;62504;46.070;14.492;2023-04-01T05:28:18;7.70;99.90
64689;DHT22;62504;46.070;14.492;2023-04-01T05:30:45;7.80;99.90
64689;DHT22;62504;46.070;14.492;2023-04-01T05:33:12;7.70;99.90
64689;DHT22;62504;46.070;14.492;2023-04-01T05:35:38;7.50;99.90
64689;DHT22;62504;46.070;14.492;2023-04-01T05:38:04;7.60;99.90
64689;DHT22;62504;46.070;14.492;2023-04-01T05:40:31;7.60;99.90
64689;DHT22;62504;46.070;14.492;2023-04-01T05:42:57;7.50;99.90
64689;DHT22;62504;46.070;14.492;2023-04-01T05:45:22;7.60;99.90
64689;DHT22;62504;46.070;14.492;2023-04-01T05:47:48;7.50;99.90
64689;DHT22;62504;46.070;14.492;2023-04-01T05:50:14;7.50;99.90
64689;DHT22;62504;46.070;14.492;2023-04-01T05:52:40;7.50;99.90
64689;DHT22;62504;46.070;14.492;2023-04-01T05:55:06;7.40;99.90
64689;DHT22;62504;46.070;14.492;2023-04-01T05:57:32;7.50;99.90
64689;DHT22;62504;46.070;14.492;2023-04-01T05:59:58;7.50;99.90
64689;DHT22;62504;46.070;14.492;2023-04-01T06:02:23;7.60;99.90
64689;DHT22;62504;46.070;14.492;2023-04-01T06:04:49;7.60;99.90
64689;DHT22;62504;46.070;14.492;2023-04-01T06:07:19;8.00;99.90
64689;DHT22;62504;46.070;14.492;2023-04-01T06:09:45;8.10;99.90
64689;DHT22;62504;46.070;14.492;2023-04-01T06:23:42;8.30;99.90
64689;DHT22;62504;46.070;14.492;2023-04-01T06:29:30;8.70;99.90
64689;DHT22;62504;46.070;14.492;2023-04-01T06:48:43;9.20;99.90
64689;DHT22;62504;46.070;14.492;2023-04-01T06:54:21;9.40;99.90
64689;DHT22;62504;46.070;14.492;2023-04-01T06:56:54;9.40;99.90
64689;DHT22;62504;46.070;14.492;2023-04-01T06:59:30;9.50;99.90
64689;DHT22;62504;46.070;14.492;2023-04-01T07:02:01;9.40;99.90
64689;DHT22;62504;46.070;14.492;2023-04-01T07:04:33;9.60;99.90
64689;DHT22;62504;46.070;14.492;2023-04-01T07:07:18;9.50;99.90
64689;DHT22;62504;46.070;14.492;2023-04-01T07:09:51;9.50;99.90
64689;DHT22;62504;46.070;14.492;2023-04-01T07:15:26;9.70;99.90
64689;DHT22;62504;46.070;14.492;2023-04-01T07:20:49;10.20;99.90
64689;DHT22;62504;46.070;14.492;2023-04-01T07:23:29;10.30;99.90
64689;DHT22;62504;46.070;14.492;2023-04-01T07:26:00;10.30;99.90
64689;DHT22;62504;46.070;14.492;2023-04-01T07:28:30;10.70;99.90
64689;DHT22;62504;46.070;14.492;2023-04-01T07:36:54;11.40;99.90
64689;DHT22;62504;46.070;14.492;2023-04-01T07:47:46;11.60;99.90
64689;DHT22;62504;46.070;14.492;2023-04-01T07:55:31;10.90;99.90
64689;DHT22;62504;46.070;14.492;2023-04-01T08:01:19;11.10;99.90
64689;DHT22;62504;46.070;14.492;2023-04-01T08:06:47;11.00;99.90
64689;DHT22;62504;46.070;14.492;2023-04-01T08:23:29;11.00;99.90
64689;DHT22;62504;46.070;14.492;2023-04-01T08:28:54;11.00;99.90
64689;DHT22;62504;46.070;14.492;2023-04-01T08:31:58;10.90;99.90
64689;DHT22;62504;46.070;14.492;2023-04-01T08:34:32;11.10;99.90
64689;DHT22;62504;46.070;14.492;2023-04-01T08:37:16;11.40;99.90
64689;DHT22;62504;46.070;14.492;2023-04-01T08:39:56;11.60;99.90
64689;DHT22;62504;46.070;14.492;2023-04-01T08:42:31;11.40;99.90
64689;DHT22;62504;46.070;14.492;2023-04-01T08:48:19;12.00;99.90
64689;DHT22;62504;46.070;14.492;2023-04-01T08:57:11;12.30;99.90
64689;DHT22;62504;46.070;14.492;2023-04-01T09:06:00;12.40;99.90
64689;DHT22;62504;46.070;14.492;2023-04-01T09:14:16;12.50;99.90
64689;DHT22;62504;46.070;14.492;2023-04-01T09:30:21;12.40;99.90
64689;DHT22;62504;46.070;14.492;2023-04-01T09:38:22;12.80;99.90
64689;DHT22;62504;46.070;14.492;2023-04-01T09:52:10;12.60;99.90
64689;DHT22;62504;46.070;14.492;2023-04-01T10:20:12;12.20;99.90
64689;DHT22;62504;46.070;14.492;2023-04-01T10:28:48;12.20;99.90
64689;DHT22;62504;46.070;14.492;2023-04-01T10:39:37;12.10;99.90
64689;DHT22;62504;46.070;14.492;2023-04-01T10:56:39;12.20;99.90
64689;DHT22;62504;46.070;14.492;2023-04-01T11:32:24;13.20;99.90
64689;DHT22;62504;46.070;14.492;2023-04-01T11:37:35;13.30;99.90
64689;DHT22;62504;46.070;14.492;2023-04-01T11:40:35;13.50;99.90
64689;DHT22;62504;46.070;14.492;2023-04-01T11:51:27;13.90;99.90
64689;DHT22;62504;46.070;14.492;2023-04-01T11:54:04;13.70;99.90
64689;DHT22;62504;46.070;14.492;2023-04-01T12:10:20;13.90;99.90
64689;DHT22;62504;46.070;14.492;2023-04-01T12:21:32;14.20;99.90
64689;DHT22;62504;46.070;14.492;2023-04-01T12:32:44;14.40;99.90
64689;DHT22;62504;46.070;14.492;2023-04-01T12:35:42;14.50;99.90
64689;DHT22;62504;46.070;14.492;2023-04-01T12:38:35;14.60;99.90
64689;DHT22;62504;46.070;14.492;2023-04-01T12:53:10;14.90;99.90
64689;DHT22;62504;46.070;14.492;2023-04-01T13:01:27;14.90;99.90
64689;DHT22;62504;46.070;14.492;2023-04-01T13:12:35;15.20;99.90
64689;DHT22;62504;46.070;14.492;2023-04-01T13:18:11;15.30;99.90
64689;DHT22;62504;46.070;14.492;2023-04-01T13:26:11;15.20;99.90
64689;DHT22;62504;46.070;14.492;2023-04-01T13:31:11;15.10;99.90
64689;DHT22;62504;46.070;14.492;2023-04-01T13:33:50;15.00;99.90
64689;DHT22;62504;46.070;14.492;2023-04-01T13:41:38;14.80;99.90
64689;DHT22;62504;46.070;14.492;2023-04-01T14:09:22;14.60;99.90
64689;DHT22;62504;46.070;14.492;2023-04-01T14:22:42;14.60;99.90
64689;DHT22;62504;46.070;14.492;2023-04-01T14:28:55;14.50;99.90
64689;DHT22;62504;46.070;14.492;2023-04-01T14:35:05;14.50;99.90
64689;DHT22;62504;46.070;14.492;2023-04-01T14:40:27;14.40;99.90
64689;DHT22;62504;46.070;14.492;2023-04-01T14:51:36;14.30;99.90
64689;DHT22;62504;46.070;14.492;2023-04-01T14:54:16;14.40;99.90
64689;DHT22;62504;46.070;14.492;2023-04-01T14:56:50;14.40;99.90
64689;DHT22;62504;46.070;14.492;2023-04-01T15:27:55;14.50;99.90
64689;DHT22;62504;46.070;14.492;2023-04-01T15:30:32;14.40;99.90
64689;DHT22;62504;46.070;14.492;2023-04-01T15:33:30;14.40;99.90
64689;DHT22;62504;46.070;14.492;2023-04-01T15:41:16;14.40;99.90
64689;DHT22;62504;46.070;14.492;2023-04-01T15:43:43;14.40;99.90
64689;DHT22;62504;46.070;14.492;2023-04-01T16:05:59;14.40;99.90
64689;DHT22;62504;46.070;14.492;2023-04-01T16:22:25;14.50;99.90
64689;DHT22;62504;46.070;14.492;2023-04-01T16:30:59;14.60;99.90
64689;DHT22;62504;46.070;14.492;2023-04-01T16:33:35;14.60;99.90
64689;DHT22;62504;46.070;14.492;2023-04-01T16:36:42;14.60;99.90
64689;DHT22;62504;46.070;14.492;2023-04-01T16:42:16;14.50;99.90
64689;DHT22;62504;46.070;14.492;2023-04-01T16:44:54;14.50;99.90
64689;DHT22;62504;46.070;14.492;2023-04-01T16:47:36;14.50;99.90
64689;DHT22;62504;46.070;14.492;2023-04-01T16:58:41;14.50;99.90
64689;DHT22;62504;46.070;14.492;2023-04-01T17:04:32;14.60;99.90
64689;DHT22;62504;46.070;14.492;2023-04-01T17:07:22;14.60;99.90
64689;DHT22;62504;46.070;14.492;2023-04-01T17:12:34;14.30;99.90
64689;DHT22;62504;46.070;14.492;2023-04-01T17:20:46;14.10;99.90
64689;DHT22;62504;46.070;14.492;2023-04-01T17:39:22;13.30;99.90
64689;DHT22;62504;46.070;14.492;2023-04-01T17:59:23;12.80;99.90
64689;DHT22;62504;46.070;14.492;2023-04-01T18:05:00;12.90;99.90
64689;DHT22;62504;46.070;14.492;2023-04-01T18:10:25;12.80;99.90
64689;DHT22;62504;46.070;14.492;2023-04-01T18:13:02;12.80;99.90
64689;DHT22;62504;46.070;14.492;2023-04-01T18:15:46;12.80;99.90
64689;DHT22;62504;46.070;14.492;2023-04-01T18:24:31;12.80;99.90
64689;DHT22;62504;46.070;14.492;2023-04-01T18:27:11;12.80;99.90
64689;DHT22;62504;46.070;14.492;2023-04-01T18:40:36;12.50;99.90
64689;DHT22;62504;46.070;14.492;2023-04-01T18:45:53;12.60;99.90
64689;DHT22;62504;46.070;14.492;2023-04-01T18:48:52;12.50;99.90
64689;DHT22;62504;46.070;14.492;2023-04-01T18:51:25;12.40;99.90
64689;DHT22;62504;46.070;14.492;2023-04-01T18:53:58;12.30;99.90
64689;DHT22;62504;46.070;14.492;2023-04-01T18:56:44;12.20;99.90
64689;DHT22;62504;46.070;14.492;2023-04-01T18:59:31;12.10;99.90
64689;DHT22;62504;46.070;14.492;2023-04-01T19:02:20;12.10;99.90
64689;DHT22;62504;46.070;14.492;2023-04-01T19:07:53;11.90;99.90
64689;DHT22;62504;46.070;14.492;2023-04-01T19:10:40;11.80;99.90
64689;DHT22;62504;46.070;14.492;2023-04-01T19:16:20;11.80;99.90
64689;DHT22;62504;46.070;14.492;2023-04-01T19:21:21;11.70;99.90
64689;DHT22;62504;46.070;14.492;2023-04-01T19:24:03;11.70;99.90
64689;DHT22;62504;46.070;14.492;2023-04-01T19:26:44;11.60;99.90
64689;DHT22;62504;46.070;14.492;2023-04-01T19:40:20;11.60;99.90
64689;DHT22;62504;46.070;14.492;2023-04-01T19:42:58;11.50;99.90
64689;DHT22;62504;46.070;14.492;2023-04-01T19:45:41;11.50;99.90
64689;DHT22;62504;46.070;14.492;2023-04-01T19:50:59;11.20;99.90
64689;DHT22;62504;46.070;14.492;2023-04-01T19:56:41;11.10;99.90
64689;DHT22;62504;46.070;14.492;2023-04-01T19:59:19;11.10;99.90
64689;DHT22;62504;46.070;14.492;2023-04-01T20:04:45;11.20;99.90
64689;DHT22;62504;46.070;14.492;2023-04-01T20:07:19;11.00;99.90
64689;DHT22;62504;46.070;14.492;2023-04-01T20:10:10;11.00;99.90
64689;DHT22;62504;46.070;14.492;2023-04-01T20:17:52;10.80;99.90
64689;DHT22;62504;46.070;14.492;2023-04-01T20:20:23;10.90;99.90
64689;DHT22;62504;46.070;14.492;2023-04-01T20:43:05;10.60;99.90
64689;DHT22;62504;46.070;14.492;2023-04-01T20:50:29;10.40;99.90
64689;DHT22;62504;46.070;14.492;2023-04-01T20:53:15;10.40;99.90
64689;DHT22;62504;46.070;14.492;2023-04-01T20:58:54;10.50;99.90
64689;DHT22;62504;46.070;14.492;2023-04-01T21:01:40;10.50;99.90
64689;DHT22;62504;46.070;14.492;2023-04-01T21:10:24;10.50;99.90
64689;DHT22;62504;46.070;14.492;2023-04-01T21:24:29;10.20;99.90
64689;DHT22;62504;46.070;14.492;2023-04-01T21:33:02;10.20;99.90
64689;DHT22;62504;46.070;14.492;2023-04-01T21:41:08;10.20;99.90
64689;DHT22;62504;46.070;14.492;2023-04-01T22:00:35;10.20;99.90
64689;DHT22;62504;46.070;14.492;2023-04-01T22:08:33;9.90;99.90
64689;DHT22;62504;46.070;14.492;2023-04-01T22:11:10;9.80;99.90
64689;DHT22;62504;46.070;14.492;2023-04-01T22:13:49;9.90;99.90
64689;DHT22;62504;46.070;14.492;2023-04-01T22:21:53;9.80;99.90
64689;DHT22;62504;46.070;14.492;2023-04-01T22:27:38;9.90;99.90
64689;DHT22;62504;46.070;14.492;2023-04-01T22:32:49;9.90;99.90
64689;DHT22;62504;46.070;14.492;2023-04-01T22:41:01;9.70;99.90
64689;DHT22;62504;46.070;14.492;2023-04-01T22:43:41;9.60;99.90
64689;DHT22;62504;46.070;14.492;2023-04-01T22:52:23;9.60;99.90
64689;DHT22;62504;46.070;14.492;2023-04-01T22:55:08;9.60;99.90
64689;DHT22;62504;46.070;14.492;2023-04-01T22:58:04;9.70;99.90
64689;DHT22;62504;46.070;14.492;2023-04-01T23:03:30;9.60;99.90
64689;DHT22;62504;46.070;14.492;2023-04-01T23:06:02;9.60;99.90
64689;DHT22;62504;46.070;14.492;2023-04-01T23:11:08;9.40;99.90
64689;DHT22;62504;46.070;14.492;2023-04-01T23:13:39;9.30;99.90
64689;DHT22;62504;46.070;14.492;2023-04-01T23:16:08;9.40;99.90
64689;DHT22;62504;46.070;14.492;2023-04-01T23:18:44;9.30;99.90
64689;DHT22;62504;46.070;14.492;2023-04-01T23:21:26;9.30;99.90
64689;DHT22;62504;46.070;14.492;2023-04-01T23:24:05;9.40;99.90
64689;DHT22;62504;46.070;14.492;2023-04-01T23:26:40;9.30;99.90
64689;DHT22;62504;46.070;14.492;2023-04-01T23:29:14;9.10;99.90
64689;DHT22;62504;46.070;14.492;2023-04-01T23:31:47;9.10;99.90
64689;DHT22;62504;46.070;14.492;2023-04-01T23:36:51;9.20;99.90
64689;DHT22;62504;46.070;14.492;2023-04-01T23:39:22;9.10;99.90
64689;DHT22;62504;46.070;14.492;2023-04-01T23:41:49;9.10;99.90
64689;DHT22;62504;46.070;14.492;2023-04-01T23:44:16;9.00;99.90
64689;DHT22;62504;46.070;14.492;2023-04-01T23:46:44;8.90;99.90
64689;DHT22;62504;46.070;14.492;2023-04-01T23:49:35;8.90;99.90
64689;DHT22;62504;46.070;14.492;2023-04-01T23:52:04;8.80;99.90
64689;DHT22;62504;46.070;14.492;2023-04-01T23:54:41;8.80;99.90
64689;DHT22;62504;46.070;14.492;2023-04-01T23:57:18;8.80;99.90
64689;DHT22;62504;46.070;14.492;2023-04-01T23:59:44;8.90;99.90
